Flinterbothnia — PBLG — position and weather

sailwx.info

Track history (hours):
 
Tides and Currents Weather Stations Pressure Air Temp Water Temp Dewpoint Dewpoint Depression Visibility Wind Speed Wind Dir Waves Ship Positions

Flinterbothnia

Last reported at 2015-Mar-26 09:33 UTC. Time now 2015-Mar-29 07:28 UTC.
Position N 55°40' E 015°31'.

Length 82 m; draft 5.5 m.

Type: Cargo ship. MMSI: 244741000.

Date/timePositionNaut miles runAvg speedWind from/ knotsBaromVisibWave heightAir tempDewpointWater temp
2015-Mar-26 09:33N 55°40' E 015°31'9 8.6
2015-Mar-26 08:33N 55°35' E 015°18'9 8.8
2015-Mar-26 07:33N 55°31' E 015°04'9 9.1
2015-Mar-26 06:33N 55°26' E 014°50'9 9.1
2015-Mar-26 05:33N 55°21' E 014°37'9 9.2
2015-Mar-26 04:33N 55°14' E 014°27'9 8.9
2015-Mar-26 03:33N 55°07' E 014°18'8 8.3
2015-Mar-26 02:33N 55°00' E 014°09'7 7.5
2015-Mar-26 01:33N 54°57' E 013°57'14 7.2
2015-Mar-25 23:33N 54°51' E 013°34'7 6.9
2015-Mar-25 22:29N 54°49' E 013°22'7 6.4
2015-Mar-25 21:27N 54°46' E 013°11'21 6.7
2015-Mar-25 18:16N 54°38' E 012°37'6 7.8
2015-Mar-25 17:33N 54°35' E 012°29'8 8.1
2015-Mar-25 16:31N 54°30' E 012°17'8 8.0
2015-Mar-25 15:33N 54°25' E 012°08'8 8.5
2015-Mar-25 14:34N 54°25' E 011°53'8 7.9
2015-Mar-25 13:33N 54°27' E 011°40'8 7.8
2015-Mar-25 12:33N 54°30' E 011°28'8 8.1
2015-Mar-25 11:33N 54°33' E 011°15'9 8.0
2015-Mar-25 10:23N 54°34' E 010°59'15 8.3
2015-Mar-25 08:33N 54°32' E 010°32'8 8.5
2015-Mar-25 07:33N 54°28' E 010°20'9 8.6
2015-Mar-25 06:33N 54°22' E 010°10'2 2.1
2015-Mar-25 05:33N 54°22' E 010°06'8 7.8
2015-Mar-25 04:34N 54°21' E 009°53'8 7.5
2015-Mar-25 03:33N 54°18' E 009°41'8 7.7
2015-Mar-25 02:33N 54°12' E 009°33'9 8.3
2015-Mar-25 01:31N 54°08' E 009°20'8 8.5
2015-Mar-25 00:33N 53°60' E 009°17'7 7.2
2015-Mar-24 23:33N 53°54' E 009°10'2 1.6
2015-Mar-24 22:33N 53°53' E 009°07'2 1.7
2015-Mar-24 21:33N 53°53' E 009°05'6 6.5
2015-Mar-24 20:33N 53°50' E 008°54'6 5.7
2015-Mar-24 19:33N 53°51' E 008°45'6 6.1
2015-Mar-24 18:33N 53°56' E 008°39'7 7.0
2015-Mar-24 17:33N 53°59' E 008°27'18 8.6
2015-Mar-24 15:27N 53°57' E 007°57'910.3
2015-Mar-24 14:32N 53°55' E 007°41'1010.8
2015-Mar-24 13:33N 53°53' E 007°24'4711.6
2015-Mar-24 09:29N 53°41' E 006°06'1111.7
2015-Mar-24 08:33N 53°38' E 005°49'1211.7
2015-Mar-24 07:33N 53°34' E 005°30'1211.6
2015-Mar-24 06:33N 53°30' E 005°12'1111.0
2015-Mar-24 05:33N 53°26' E 004°55'30 9.8
2015-Mar-24 02:27N 53°02' E 004°25'9 9.8
2015-Mar-24 01:33N 52°54' E 004°18'9 9.4
2015-Mar-24 00:33N 52°46' E 004°10'9 9.3
2015-Mar-23 23:33N 52°38' E 004°01'12 9.1
2015-Mar-23 22:12N 52°29' E 003°48'3810.2
2015-Mar-23 18:28N 51°54' E 003°22'1211.6
2015-Mar-23 17:24N 51°42' E 003°18'910.6
2015-Mar-23 16:33N 51°34' E 003°25'1010.3
2015-Mar-23 15:34N 51°26' E 003°36'8 7.8
2015-Mar-23 14:33N 51°22' E 003°46'3 3.2
2015-Mar-23 13:34N 51°19' E 003°50'1 0.8
2015-Mar-23 12:33N 51°19' E 003°50'0 0.0
2015-Mar-23 11:33N 51°19' E 003°50'0 0.0
2015-Mar-23 10:33N 51°19' E 003°50'0 0.0
2015-Mar-23 09:33N 51°19' E 003°50'0 0.0
2015-Mar-23 08:33N 51°19' E 003°50'0 0.0
2015-Mar-23 07:33N 51°19' E 003°50'0 0.0
2015-Mar-23 06:33N 51°19' E 003°50'0 0.0
2015-Mar-23 05:34N 51°19' E 003°50'0 0.0
2015-Mar-23 04:34N 51°19' E 003°50'0 0.0
2015-Mar-23 03:33N 51°19' E 003°50'0 0.0
2015-Mar-23 02:34N 51°19' E 003°50'0 0.0
2015-Mar-23 01:34N 51°19' E 003°50'0 0.0
2015-Mar-23 00:33N 51°19' E 003°50'0 0.0
2015-Mar-22 23:34N 51°19' E 003°50'0 0.0
2015-Mar-22 22:34N 51°19' E 003°50'0 0.0
2015-Mar-22 21:34N 51°19' E 003°50'0 0.0
2015-Mar-22 20:34N 51°19' E 003°50'0 0.0
2015-Mar-22 19:33N 51°19' E 003°50'0 0.0
2015-Mar-22 18:34N 51°19' E 003°50'0 0.0
2015-Mar-22 17:33N 51°19' E 003°50'0 0.0
2015-Mar-22 16:33N 51°19' E 003°50'0 0.0
2015-Mar-22 15:33N 51°19' E 003°50'0 0.0
2015-Mar-22 14:34N 51°19' E 003°50'0 0.0
2015-Mar-22 13:34N 51°19' E 003°50'0 0.0
2015-Mar-22 12:34N 51°19' E 003°50'1 1.3
2015-Mar-22 11:33N 51°20' E 003°49'1 0.6
2015-Mar-22 10:33N 51°20' E 003°49'8 8.2
2015-Mar-22 09:34N 51°26' E 003°40'10 9.9
2015-Mar-22 08:33N 51°31' E 003°26'1110.7
2015-Mar-22 07:30N 51°40' E 003°15'62 7.4
2015-Mar-21 23:09N 52°27' E 002°11'5 7.7
2015-Mar-21 22:33N 52°31' E 002°07'10 8.7
2015-Mar-21 21:27N 52°40' E 001°59'9 9.9
2015-Mar-21 20:33N 52°47' E 001°50'1010.1
2015-Mar-21 19:33N 52°53' E 001°38'10 9.8
2015-Mar-21 18:33N 53°01' E 001°28'9 8.7
2015-Mar-21 17:33N 53°09' E 001°21'282 7.4
2015-Mar-20 03:33N 57°33' W 001°36'7 7.3
2015-Mar-20 02:33N 57°39' W 001°41'8 7.8
2015-Mar-20 01:33N 57°46' W 001°49'53 8.4
2015-Mar-19 19:12N 58°30' W 002°46'6 9.5
2015-Mar-19 18:33N 58°35' W 002°53'1211.9
2015-Mar-19 17:33N 58°43' W 003°09'8 7.5
2015-Mar-19 16:33N 58°44' W 003°24'6 5.6
2015-Mar-19 15:33N 58°47' W 003°32'7 7.4
2015-Mar-19 14:33N 58°51' W 003°45'8 7.6
2015-Mar-19 13:33N 58°55' W 003°58'7 7.5
2015-Mar-19 12:33N 58°58' W 004°10'7 7.3
2015-Mar-19 11:33N 59°02' W 004°22'  
Track history (hours):
 
Tides and Currents Weather Stations Pressure Air Temp Water Temp Dewpoint Dewpoint Depression Visibility Wind Speed Wind Dir Waves Ship Positions

Flinterbothnia

Last reported at 2015-Mar-26 09:33 UTC. Time now 2015-Mar-29 07:28 UTC.
Position N 55°40' E 015°31'.

Length 82 m; draft 5.5 m.

Type: Cargo ship. MMSI: 244741000.

Date/timePositionNaut miles runAvg speedWind from/ knotsBaromVisibWave heightAir tempDewpointWater temp
2015-Mar-26 09:33N 55°40' E 015°31'9 8.6
2015-Mar-26 08:33N 55°35' E 015°18'9 8.8
2015-Mar-26 07:33N 55°31' E 015°04'9 9.1
2015-Mar-26 06:33N 55°26' E 014°50'9 9.1
2015-Mar-26 05:33N 55°21' E 014°37'9 9.2
2015-Mar-26 04:33N 55°14' E 014°27'9 8.9
2015-Mar-26 03:33N 55°07' E 014°18'8 8.3
2015-Mar-26 02:33N 55°00' E 014°09'7 7.5
2015-Mar-26 01:33N 54°57' E 013°57'14 7.2
2015-Mar-25 23:33N 54°51' E 013°34'7 6.9
2015-Mar-25 22:29N 54°49' E 013°22'7 6.4
2015-Mar-25 21:27N 54°46' E 013°11'21 6.7
2015-Mar-25 18:16N 54°38' E 012°37'6 7.8
2015-Mar-25 17:33N 54°35' E 012°29'8 8.1
2015-Mar-25 16:31N 54°30' E 012°17'8 8.0
2015-Mar-25 15:33N 54°25' E 012°08'8 8.5
2015-Mar-25 14:34N 54°25' E 011°53'8 7.9
2015-Mar-25 13:33N 54°27' E 011°40'8 7.8
2015-Mar-25 12:33N 54°30' E 011°28'8 8.1
2015-Mar-25 11:33N 54°33' E 011°15'9 8.0
2015-Mar-25 10:23N 54°34' E 010°59'15 8.3
2015-Mar-25 08:33N 54°32' E 010°32'8 8.5
2015-Mar-25 07:33N 54°28' E 010°20'9 8.6
2015-Mar-25 06:33N 54°22' E 010°10'2 2.1
2015-Mar-25 05:33N 54°22' E 010°06'8 7.8
2015-Mar-25 04:34N 54°21' E 009°53'8 7.5
2015-Mar-25 03:33N 54°18' E 009°41'8 7.7
2015-Mar-25 02:33N 54°12' E 009°33'9 8.3
2015-Mar-25 01:31N 54°08' E 009°20'8 8.5
2015-Mar-25 00:33N 53°60' E 009°17'7 7.2
2015-Mar-24 23:33N 53°54' E 009°10'2 1.6
2015-Mar-24 22:33N 53°53' E 009°07'2 1.7
2015-Mar-24 21:33N 53°53' E 009°05'6 6.5
2015-Mar-24 20:33N 53°50' E 008°54'6 5.7
2015-Mar-24 19:33N 53°51' E 008°45'6 6.1
2015-Mar-24 18:33N 53°56' E 008°39'7 7.0
2015-Mar-24 17:33N 53°59' E 008°27'18 8.6
2015-Mar-24 15:27N 53°57' E 007°57'910.3
2015-Mar-24 14:32N 53°55' E 007°41'1010.8
2015-Mar-24 13:33N 53°53' E 007°24'4711.6
2015-Mar-24 09:29N 53°41' E 006°06'1111.7
2015-Mar-24 08:33N 53°38' E 005°49'1211.7
2015-Mar-24 07:33N 53°34' E 005°30'1211.6
2015-Mar-24 06:33N 53°30' E 005°12'1111.0
2015-Mar-24 05:33N 53°26' E 004°55'30 9.8
2015-Mar-24 02:27N 53°02' E 004°25'9 9.8
2015-Mar-24 01:33N 52°54' E 004°18'9 9.4
2015-Mar-24 00:33N 52°46' E 004°10'9 9.3
2015-Mar-23 23:33N 52°38' E 004°01'12 9.1
2015-Mar-23 22:12N 52°29' E 003°48'3810.2
2015-Mar-23 18:28N 51°54' E 003°22'1211.6
2015-Mar-23 17:24N 51°42' E 003°18'910.6
2015-Mar-23 16:33N 51°34' E 003°25'1010.3
2015-Mar-23 15:34N 51°26' E 003°36'8 7.8
2015-Mar-23 14:33N 51°22' E 003°46'3 3.2
2015-Mar-23 13:34N 51°19' E 003°50'1 0.8
2015-Mar-23 12:33N 51°19' E 003°50'0 0.0
2015-Mar-23 11:33N 51°19' E 003°50'0 0.0
2015-Mar-23 10:33N 51°19' E 003°50'0 0.0
2015-Mar-23 09:33N 51°19' E 003°50'0 0.0
2015-Mar-23 08:33N 51°19' E 003°50'0 0.0
2015-Mar-23 07:33N 51°19' E 003°50'0 0.0
2015-Mar-23 06:33N 51°19' E 003°50'0 0.0
2015-Mar-23 05:34N 51°19' E 003°50'0 0.0
2015-Mar-23 04:34N 51°19' E 003°50'0 0.0
2015-Mar-23 03:33N 51°19' E 003°50'0 0.0
2015-Mar-23 02:34N 51°19' E 003°50'0 0.0
2015-Mar-23 01:34N 51°19' E 003°50'0 0.0
2015-Mar-23 00:33N 51°19' E 003°50'0 0.0
2015-Mar-22 23:34N 51°19' E 003°50'0 0.0
2015-Mar-22 22:34N 51°19' E 003°50'0 0.0
2015-Mar-22 21:34N 51°19' E 003°50'0 0.0
2015-Mar-22 20:34N 51°19' E 003°50'0 0.0
2015-Mar-22 19:33N 51°19' E 003°50'0 0.0
2015-Mar-22 18:34N 51°19' E 003°50'0 0.0
2015-Mar-22 17:33N 51°19' E 003°50'0 0.0
2015-Mar-22 16:33N 51°19' E 003°50'0 0.0
2015-Mar-22 15:33N 51°19' E 003°50'0 0.0
2015-Mar-22 14:34N 51°19' E 003°50'0 0.0
2015-Mar-22 13:34N 51°19' E 003°50'0 0.0
2015-Mar-22 12:34N 51°19' E 003°50'1 1.3
2015-Mar-22 11:33N 51°20' E 003°49'1 0.6
2015-Mar-22 10:33N 51°20' E 003°49'8 8.2
2015-Mar-22 09:34N 51°26' E 003°40'10 9.9
2015-Mar-22 08:33N 51°31' E 003°26'1110.7
2015-Mar-22 07:30N 51°40' E 003°15'62 7.4
2015-Mar-21 23:09N 52°27' E 002°11'5 7.7
2015-Mar-21 22:33N 52°31' E 002°07'10 8.7
2015-Mar-21 21:27N 52°40' E 001°59'9 9.9
2015-Mar-21 20:33N 52°47' E 001°50'1010.1
2015-Mar-21 19:33N 52°53' E 001°38'10 9.8
2015-Mar-21 18:33N 53°01' E 001°28'9 8.7
2015-Mar-21 17:33N 53°09' E 001°21'282 7.4
2015-Mar-20 03:33N 57°33' W 001°36'7 7.3
2015-Mar-20 02:33N 57°39' W 001°41'8 7.8
2015-Mar-20 01:33N 57°46' W 001°49'53 8.4
2015-Mar-19 19:12N 58°30' W 002°46'6 9.5
2015-Mar-19 18:33N 58°35' W 002°53'1211.9
2015-Mar-19 17:33N 58°43' W 003°09'8 7.5
2015-Mar-19 16:33N 58°44' W 003°24'6 5.6
2015-Mar-19 15:33N 58°47' W 003°32'7 7.4
2015-Mar-19 14:33N 58°51' W 003°45'8 7.6
2015-Mar-19 13:33N 58°55' W 003°58'7 7.5
2015-Mar-19 12:33N 58°58' W 004°10'7 7.3
2015-Mar-19 11:33N 59°02' W 004°22'  

Dump ship's entire track history